logo
Rechercher aéroport 
image banner adimage banner adimage banner ad
image banner ad

FA0631 - Orange Farm

Situé à , South Africa

ICAO - , IATA -

Données fournies par Airmate  

Information générale

Coordonnées: S29°49'44" E30°30'21"
Élévation : 2303 feet MSL.
 
Voir autres Aéroports à Limpopo

Données opérationnelles

Special qualification required
Heure actuelle UTC:
Heure actuelle locale:
Météo à : FAPM - Pietermaritzburg ( 23 km )
TAF: TAF FAPM 171800Z 1719/1806 29005KT CAVOK TX12/1719Z TN08/1804Z
Voir NOTAMs / SUP AIP / TFR affectant cet aéroport [VIEW]
Fréquences de communication: [VIEW]

Pistes:

Coordonnées de l'aéroport

Adresse: South Africa

Vue satellite de FA0631